M/V Eugenie J. Huger — WDG4974 — position and weather

sailwx.info

Track history (hours):
 
Tides and Currents Weather Stations Pressure Air Temp Water Temp Dewpoint Dewpoint Depression Visibility Wind Speed Wind Dir Waves Ship Positions

M/V Eugenie J. Huger

Owner: Canal Barge Company, Inc, Belle Chasse, LA. More information available from US FCC via Universal Licensing System and Coast Guard Vessel Documentation Center.

Last reported at 2018-Jun-11 08:00 UTC. Time now 2018-Jun-19 21:38 UTC.
Position N 28°56' W 095°19'.
Warning: this ship's position is 8 days out of date.

Type: Towing. MMSI: 367541980.

Date/timePositionNaut miles runAvg speedWind from/ knotsBaromVisibWave heightAir tempDewpointWater temp
2018-Jun-11 08:00N 28°56' W 095°19'3 4.5
2018-Jun-11 07:27N 28°58' W 095°17'1 2.0
2018-Jun-11 06:53N 28°59' W 095°16'0 0.1
2018-Jun-11 06:25N 28°59' W 095°16'0 1.2
2018-Jun-11 06:00N 28°59' W 095°16'2 3.8
2018-Jun-11 05:30N 29°01' W 095°14'2 4.5
2018-Jun-11 05:00N 29°03' W 095°13'2 4.9
2018-Jun-11 04:30N 29°05' W 095°12'2 4.9
2018-Jun-11 04:00N 29°07' W 095°11'3 5.2
2018-Jun-11 03:29N 29°09' W 095°09'3 5.6
2018-Jun-11 03:00N 29°10' W 095°06'3 5.4
2018-Jun-11 02:30N 29°12' W 095°04'2 4.3
2018-Jun-11 02:00N 29°14' W 095°02'2 4.7
2018-Jun-11 01:30N 29°15' W 095°00'3 5.0
2018-Jun-11 01:00N 29°17' W 094°58'2 4.6
2018-Jun-11 00:30N 29°17' W 094°55'2 4.3
2018-Jun-11 00:00N 29°18' W 094°53'2 4.7
2018-Jun-10 23:30N 29°20' W 094°51'3 5.2
2018-Jun-10 23:00N 29°21' W 094°49'4 6.5
2018-Jun-10 22:28N 29°24' W 094°46'2 3.9
2018-Jun-10 21:58N 29°25' W 094°44'0 0.0
2018-Jun-10 21:30N 29°25' W 094°44'0 0.0
2018-Jun-10 21:00N 29°25' W 094°44'0 0.0
2018-Jun-10 20:26N 29°25' W 094°44'0 0.0
2018-Jun-10 19:58N 29°25' W 094°44'0 0.0
2018-Jun-10 19:30N 29°25' W 094°44'0 0.0
2018-Jun-10 19:00N 29°25' W 094°44'0 0.0
2018-Jun-10 18:30N 29°25' W 094°44'0 0.0
2018-Jun-10 18:00N 29°25' W 094°44'0 0.0
2018-Jun-10 17:29N 29°25' W 094°44'0 0.0
2018-Jun-10 16:59N 29°25' W 094°44'0 0.0
2018-Jun-10 16:30N 29°25' W 094°44'0 0.0
2018-Jun-10 15:57N 29°25' W 094°44'4 4.0
2018-Jun-10 15:02N 29°27' W 094°41'0 5.5
2018-Jun-10 14:58N 29°27' W 094°41'3 5.6
2018-Jun-10 14:28N 29°28' W 094°38'8 5.6
2018-Jun-10 13:01N 29°32' W 094°29'0 5.7
2018-Jun-10 12:59N 29°32' W 094°29'3 5.2
2018-Jun-10 12:30N 29°34' W 094°27'1 2.4
2018-Jun-10 12:00N 29°34' W 094°26'2 4.3
2018-Jun-10 11:30N 29°36' W 094°24'2 2.9
2018-Jun-10 10:51N 29°36' W 094°22'0 0.3
2018-Jun-10 10:28N 29°36' W 094°22'2 3.2
2018-Jun-10 09:56N 29°37' W 094°21'2 4.9
2018-Jun-10 09:29N 29°38' W 094°18'2 5.1
2018-Jun-10 09:00N 29°39' W 094°16'3 5.4
2018-Jun-10 08:30N 29°40' W 094°13'3 5.7
2018-Jun-10 08:00N 29°41' W 094°10'3 5.6
2018-Jun-10 07:30N 29°43' W 094°07'3 5.8
2018-Jun-10 07:00N 29°45' W 094°05'3 5.1
2018-Jun-10 06:30N 29°46' W 094°02'3 5.7
2018-Jun-10 06:00N 29°48' W 094°00'3 5.3
2018-Jun-10 05:30N 29°50' W 093°57'3 5.8
2018-Jun-10 05:00N 29°52' W 093°56'3 6.5
2018-Jun-10 04:30N 29°55' W 093°53'3 6.5
2018-Jun-10 04:00N 29°58' W 093°51'1 1.7
2018-Jun-10 03:30N 29°58' W 093°51'0 0.1
2018-Jun-10 03:00N 29°58' W 093°51'0 0.2
2018-Jun-10 02:30N 29°58' W 093°51'0 0.4
2018-Jun-10 02:00N 29°58' W 093°51'0 0.2
2018-Jun-10 01:30N 29°58' W 093°51'0 0.0
2018-Jun-10 01:00N 29°58' W 093°51'1 1.7
2018-Jun-10 00:30N 29°59' W 093°50'3 5.7
2018-Jun-10 00:00N 29°60' W 093°47'3 5.8
2018-Jun-09 23:30N 30°02' W 093°44'3 5.0
2018-Jun-09 23:00N 30°03' W 093°42'3 5.3
2018-Jun-09 22:30N 30°04' W 093°39'2 4.2
2018-Jun-09 22:00N 30°04' W 093°37'2 4.4
2018-Jun-09 21:30N 30°04' W 093°34'2 4.6
2018-Jun-09 21:00N 30°04' W 093°32'2 4.7
2018-Jun-09 20:30N 30°04' W 093°29'2 4.8
2018-Jun-09 20:00N 30°04' W 093°26'2 4.1
2018-Jun-09 19:30N 30°04' W 093°24'2 3.9
2018-Jun-09 19:00N 30°04' W 093°22'1 2.9
2018-Jun-09 18:30N 30°05' W 093°20'2 3.9
2018-Jun-09 18:00N 30°06' W 093°19'1 2.5
2018-Jun-09 17:30N 30°05' W 093°18'0 1.0
2018-Jun-09 17:00N 30°05' W 093°17'1 1.2
2018-Jun-09 16:30N 30°05' W 093°17'0 0.0
2018-Jun-09 16:00N 30°05' W 093°17'0 0.0
2018-Jun-09 15:00N 30°05' W 093°17'0 0.1
2018-Jun-09 14:30N 30°05' W 093°17'0 0.1
2018-Jun-09 14:00N 30°05' W 093°17'0 0.0
2018-Jun-09 13:30N 30°05' W 093°17'0 0.0
2018-Jun-09 13:00N 30°05' W 093°17'0 0.0
2018-Jun-09 12:30N 30°05' W 093°17'0 0.0
2018-Jun-09 12:00N 30°05' W 093°17'0 0.0
2018-Jun-09 11:30N 30°05' W 093°17'0 0.3
2018-Jun-09 11:00N 30°05' W 093°17'1 1.9
2018-Jun-09 10:30N 30°04' W 093°16'1 2.0
2018-Jun-09 10:00N 30°03' W 093°16'0 1.0
2018-Jun-09 09:30N 30°02' W 093°16'1 1.6
2018-Jun-09 09:00N 30°02' W 093°15'1 1.1
2018-Jun-09 08:28N 30°02' W 093°14'1 2.2
2018-Jun-09 08:00N 30°01' W 093°14'1 2.2
2018-Jun-09 07:30N 29°60' W 093°13'0 0.0
2018-Jun-09 07:00N 29°60' W 093°13'0 0.0
2018-Jun-09 06:30N 29°60' W 093°13'0 0.1
2018-Jun-09 06:00N 29°60' W 093°13'0 0.2
2018-Jun-09 05:30N 29°60' W 093°13'0 0.1
2018-Jun-09 05:00N 29°60' W 093°13'0 0.0
2018-Jun-09 04:30N 29°60' W 093°13'0 0.2
2018-Jun-09 04:00N 29°60' W 093°13'0 0.0
2018-Jun-09 03:30N 29°60' W 093°13'0 0.1
2018-Jun-09 03:00N 29°60' W 093°13'0 0.1
2018-Jun-09 02:30N 29°60' W 093°13'0 0.0
2018-Jun-09 02:00N 29°60' W 093°13'0 0.8
2018-Jun-09 01:30N 29°59' W 093°13'0 0.9
2018-Jun-09 01:00N 29°59' W 093°13'1 1.6
2018-Jun-09 00:30N 29°59' W 093°12'1 2.3
2018-Jun-09 00:00N 29°58' W 093°11'2 3.3
2018-Jun-08 23:30N 29°56' W 093°10'1 2.2
2018-Jun-08 23:00N 29°56' W 093°09'0 0.2
2018-Jun-08 22:30N 29°56' W 093°09'1 2.1
2018-Jun-08 22:00N 29°56' W 093°07'1 2.2
2018-Jun-08 21:30N 29°56' W 093°06'1 0.6
2018-Jun-08 19:53N 29°56' W 093°05'0 0.0
2018-Jun-08 16:19N 29°56' W 093°05'0 0.0
2018-Jun-08 15:57N 29°56' W 093°05'0 0.0
2018-Jun-08 15:26N 29°56' W 093°05'1 2.0
2018-Jun-08 15:00N 29°56' W 093°04'0 0.7
2018-Jun-08 14:29N 29°56' W 093°04'0 0.4
2018-Jun-08 14:00N 29°56' W 093°03'0 0.0
2018-Jun-08 13:30N 29°56' W 093°03'0 0.0
2018-Jun-08 13:00N 29°56' W 093°03'0 0.1
2018-Jun-08 12:29N 29°56' W 093°03'0 0.0
2018-Jun-08 12:00N 29°56' W 093°03'0 0.2
2018-Jun-08 11:30N 29°56' W 093°03'0 0.1
2018-Jun-08 11:00N 29°56' W 093°03'0 0.0
2018-Jun-08 10:30N 29°56' W 093°03'1 2.5
2018-Jun-08 10:00N 29°56' W 093°02'1 2.1
2018-Jun-08 09:29N 29°56' W 093°00'1 2.9
2018-Jun-08 09:00N 29°56' W 092°59'25 3.6
2018-Jun-08 01:51N 29°54' W 092°29'2 4.3
2018-Jun-08 01:30N 29°54' W 092°28'2 4.6
2018-Jun-08 01:00N 29°53' W 092°25'2 4.4
2018-Jun-08 00:28N 29°52' W 092°23'2 4.2
2018-Jun-08 00:00N 29°51' W 092°21'2 4.6
2018-Jun-07 23:30N 29°50' W 092°19'2 4.1
2018-Jun-07 23:00N 29°49' W 092°17'2 3.3
2018-Jun-07 22:30N 29°48' W 092°15'2 4.8
2018-Jun-07 22:00N 29°47' W 092°13'1 1.0
2018-Jun-07 21:30N 29°47' W 092°12'1 1.8
2018-Jun-07 21:00N 29°47' W 092°11'0 0.1
2018-Jun-07 20:29N 29°47' W 092°11'0 0.1
2018-Jun-07 20:00N 29°47' W 092°11'1 1.9
2018-Jun-07 19:30N 29°47' W 092°10'3 5.2
2018-Jun-07 19:00N 29°47' W 092°07'2 5.0
2018-Jun-07 18:30N 29°48' W 092°04'2 4.8
2018-Jun-07 18:00N 29°49' W 092°02'3 5.3
2018-Jun-07 17:30N 29°50' W 091°59'3 5.1
2018-Jun-07 16:57N 29°51' W 091°56'5 5.5
2018-Jun-07 15:59N 29°50' W 091°50'47 3.5
2018-Jun-07 02:41N 29°36' W 090°58'2 4.8
2018-Jun-07 02:17N 29°34' W 090°57'2 5.2
2018-Jun-07 01:56N 29°33' W 090°55'3 4.6
2018-Jun-07 01:12N 29°32' W 090°51'1 5.2
2018-Jun-07 01:00N 29°32' W 090°50'3 5.0
2018-Jun-07 00:30N 29°32' W 090°47'2 4.1
2018-Jun-07 00:00N 29°33' W 090°45'2 4.0
2018-Jun-06 23:30N 29°34' W 090°43'2 3.5
2018-Jun-06 23:00N 29°36' W 090°43'1 2.4
2018-Jun-06 22:30N 29°37' W 090°41'0 0.2
2018-Jun-06 22:00N 29°37' W 090°41'1 1.7
2018-Jun-06 21:30N 29°36' W 090°41'2 3.1
2018-Jun-06 21:00N 29°36' W 090°39'2 3.7
2018-Jun-06 20:30N 29°35' W 090°37'2 3.4
2018-Jun-06 19:56N 29°34' W 090°35'2 3.9
2018-Jun-06 19:30N 29°34' W 090°33'3 4.4
2018-Jun-06 18:48N 29°34' W 090°30'5 4.4
2018-Jun-06 17:42N 29°33' W 090°24'  
Track history (hours):
 
Tides and Currents Weather Stations Pressure Air Temp Water Temp Dewpoint Dewpoint Depression Visibility Wind Speed Wind Dir Waves Ship Positions

M/V Eugenie J. Huger

Owner: Canal Barge Company, Inc, Belle Chasse, LA. More information available from US FCC via Universal Licensing System and Coast Guard Vessel Documentation Center.

Last reported at 2018-Jun-11 08:00 UTC. Time now 2018-Jun-19 21:38 UTC.
Position N 28°56' W 095°19'.
Warning: this ship's position is 8 days out of date.

Type: Towing. MMSI: 367541980.

Date/timePositionNaut miles runAvg speedWind from/ knotsBaromVisibWave heightAir tempDewpointWater temp
2018-Jun-11 08:00N 28°56' W 095°19'3 4.5
2018-Jun-11 07:27N 28°58' W 095°17'1 2.0
2018-Jun-11 06:53N 28°59' W 095°16'0 0.1
2018-Jun-11 06:25N 28°59' W 095°16'0 1.2
2018-Jun-11 06:00N 28°59' W 095°16'2 3.8
2018-Jun-11 05:30N 29°01' W 095°14'2 4.5
2018-Jun-11 05:00N 29°03' W 095°13'2 4.9
2018-Jun-11 04:30N 29°05' W 095°12'2 4.9
2018-Jun-11 04:00N 29°07' W 095°11'3 5.2
2018-Jun-11 03:29N 29°09' W 095°09'3 5.6
2018-Jun-11 03:00N 29°10' W 095°06'3 5.4
2018-Jun-11 02:30N 29°12' W 095°04'2 4.3
2018-Jun-11 02:00N 29°14' W 095°02'2 4.7
2018-Jun-11 01:30N 29°15' W 095°00'3 5.0
2018-Jun-11 01:00N 29°17' W 094°58'2 4.6
2018-Jun-11 00:30N 29°17' W 094°55'2 4.3
2018-Jun-11 00:00N 29°18' W 094°53'2 4.7
2018-Jun-10 23:30N 29°20' W 094°51'3 5.2
2018-Jun-10 23:00N 29°21' W 094°49'4 6.5
2018-Jun-10 22:28N 29°24' W 094°46'2 3.9
2018-Jun-10 21:58N 29°25' W 094°44'0 0.0
2018-Jun-10 21:30N 29°25' W 094°44'0 0.0
2018-Jun-10 21:00N 29°25' W 094°44'0 0.0
2018-Jun-10 20:26N 29°25' W 094°44'0 0.0
2018-Jun-10 19:58N 29°25' W 094°44'0 0.0
2018-Jun-10 19:30N 29°25' W 094°44'0 0.0
2018-Jun-10 19:00N 29°25' W 094°44'0 0.0
2018-Jun-10 18:30N 29°25' W 094°44'0 0.0
2018-Jun-10 18:00N 29°25' W 094°44'0 0.0
2018-Jun-10 17:29N 29°25' W 094°44'0 0.0
2018-Jun-10 16:59N 29°25' W 094°44'0 0.0
2018-Jun-10 16:30N 29°25' W 094°44'0 0.0
2018-Jun-10 15:57N 29°25' W 094°44'4 4.0
2018-Jun-10 15:02N 29°27' W 094°41'0 5.5
2018-Jun-10 14:58N 29°27' W 094°41'3 5.6
2018-Jun-10 14:28N 29°28' W 094°38'8 5.6
2018-Jun-10 13:01N 29°32' W 094°29'0 5.7
2018-Jun-10 12:59N 29°32' W 094°29'3 5.2
2018-Jun-10 12:30N 29°34' W 094°27'1 2.4
2018-Jun-10 12:00N 29°34' W 094°26'2 4.3
2018-Jun-10 11:30N 29°36' W 094°24'2 2.9
2018-Jun-10 10:51N 29°36' W 094°22'0 0.3
2018-Jun-10 10:28N 29°36' W 094°22'2 3.2
2018-Jun-10 09:56N 29°37' W 094°21'2 4.9
2018-Jun-10 09:29N 29°38' W 094°18'2 5.1
2018-Jun-10 09:00N 29°39' W 094°16'3 5.4
2018-Jun-10 08:30N 29°40' W 094°13'3 5.7
2018-Jun-10 08:00N 29°41' W 094°10'3 5.6
2018-Jun-10 07:30N 29°43' W 094°07'3 5.8
2018-Jun-10 07:00N 29°45' W 094°05'3 5.1
2018-Jun-10 06:30N 29°46' W 094°02'3 5.7
2018-Jun-10 06:00N 29°48' W 094°00'3 5.3
2018-Jun-10 05:30N 29°50' W 093°57'3 5.8
2018-Jun-10 05:00N 29°52' W 093°56'3 6.5
2018-Jun-10 04:30N 29°55' W 093°53'3 6.5
2018-Jun-10 04:00N 29°58' W 093°51'1 1.7
2018-Jun-10 03:30N 29°58' W 093°51'0 0.1
2018-Jun-10 03:00N 29°58' W 093°51'0 0.2
2018-Jun-10 02:30N 29°58' W 093°51'0 0.4
2018-Jun-10 02:00N 29°58' W 093°51'0 0.2
2018-Jun-10 01:30N 29°58' W 093°51'0 0.0
2018-Jun-10 01:00N 29°58' W 093°51'1 1.7
2018-Jun-10 00:30N 29°59' W 093°50'3 5.7
2018-Jun-10 00:00N 29°60' W 093°47'3 5.8
2018-Jun-09 23:30N 30°02' W 093°44'3 5.0
2018-Jun-09 23:00N 30°03' W 093°42'3 5.3
2018-Jun-09 22:30N 30°04' W 093°39'2 4.2
2018-Jun-09 22:00N 30°04' W 093°37'2 4.4
2018-Jun-09 21:30N 30°04' W 093°34'2 4.6
2018-Jun-09 21:00N 30°04' W 093°32'2 4.7
2018-Jun-09 20:30N 30°04' W 093°29'2 4.8
2018-Jun-09 20:00N 30°04' W 093°26'2 4.1
2018-Jun-09 19:30N 30°04' W 093°24'2 3.9
2018-Jun-09 19:00N 30°04' W 093°22'1 2.9
2018-Jun-09 18:30N 30°05' W 093°20'2 3.9
2018-Jun-09 18:00N 30°06' W 093°19'1 2.5
2018-Jun-09 17:30N 30°05' W 093°18'0 1.0
2018-Jun-09 17:00N 30°05' W 093°17'1 1.2
2018-Jun-09 16:30N 30°05' W 093°17'0 0.0
2018-Jun-09 16:00N 30°05' W 093°17'0 0.0
2018-Jun-09 15:00N 30°05' W 093°17'0 0.1
2018-Jun-09 14:30N 30°05' W 093°17'0 0.1
2018-Jun-09 14:00N 30°05' W 093°17'0 0.0
2018-Jun-09 13:30N 30°05' W 093°17'0 0.0
2018-Jun-09 13:00N 30°05' W 093°17'0 0.0
2018-Jun-09 12:30N 30°05' W 093°17'0 0.0
2018-Jun-09 12:00N 30°05' W 093°17'0 0.0
2018-Jun-09 11:30N 30°05' W 093°17'0 0.3
2018-Jun-09 11:00N 30°05' W 093°17'1 1.9
2018-Jun-09 10:30N 30°04' W 093°16'1 2.0
2018-Jun-09 10:00N 30°03' W 093°16'0 1.0
2018-Jun-09 09:30N 30°02' W 093°16'1 1.6
2018-Jun-09 09:00N 30°02' W 093°15'1 1.1
2018-Jun-09 08:28N 30°02' W 093°14'1 2.2
2018-Jun-09 08:00N 30°01' W 093°14'1 2.2
2018-Jun-09 07:30N 29°60' W 093°13'0 0.0
2018-Jun-09 07:00N 29°60' W 093°13'0 0.0
2018-Jun-09 06:30N 29°60' W 093°13'0 0.1
2018-Jun-09 06:00N 29°60' W 093°13'0 0.2
2018-Jun-09 05:30N 29°60' W 093°13'0 0.1
2018-Jun-09 05:00N 29°60' W 093°13'0 0.0
2018-Jun-09 04:30N 29°60' W 093°13'0 0.2
2018-Jun-09 04:00N 29°60' W 093°13'0 0.0
2018-Jun-09 03:30N 29°60' W 093°13'0 0.1
2018-Jun-09 03:00N 29°60' W 093°13'0 0.1
2018-Jun-09 02:30N 29°60' W 093°13'0 0.0
2018-Jun-09 02:00N 29°60' W 093°13'0 0.8
2018-Jun-09 01:30N 29°59' W 093°13'0 0.9
2018-Jun-09 01:00N 29°59' W 093°13'1 1.6
2018-Jun-09 00:30N 29°59' W 093°12'1 2.3
2018-Jun-09 00:00N 29°58' W 093°11'2 3.3
2018-Jun-08 23:30N 29°56' W 093°10'1 2.2
2018-Jun-08 23:00N 29°56' W 093°09'0 0.2
2018-Jun-08 22:30N 29°56' W 093°09'1 2.1
2018-Jun-08 22:00N 29°56' W 093°07'1 2.2
2018-Jun-08 21:30N 29°56' W 093°06'1 0.6
2018-Jun-08 19:53N 29°56' W 093°05'0 0.0
2018-Jun-08 16:19N 29°56' W 093°05'0 0.0
2018-Jun-08 15:57N 29°56' W 093°05'0 0.0
2018-Jun-08 15:26N 29°56' W 093°05'1 2.0
2018-Jun-08 15:00N 29°56' W 093°04'0 0.7
2018-Jun-08 14:29N 29°56' W 093°04'0 0.4
2018-Jun-08 14:00N 29°56' W 093°03'0 0.0
2018-Jun-08 13:30N 29°56' W 093°03'0 0.0
2018-Jun-08 13:00N 29°56' W 093°03'0 0.1
2018-Jun-08 12:29N 29°56' W 093°03'0 0.0
2018-Jun-08 12:00N 29°56' W 093°03'0 0.2
2018-Jun-08 11:30N 29°56' W 093°03'0 0.1
2018-Jun-08 11:00N 29°56' W 093°03'0 0.0
2018-Jun-08 10:30N 29°56' W 093°03'1 2.5
2018-Jun-08 10:00N 29°56' W 093°02'1 2.1
2018-Jun-08 09:29N 29°56' W 093°00'1 2.9
2018-Jun-08 09:00N 29°56' W 092°59'25 3.6
2018-Jun-08 01:51N 29°54' W 092°29'2 4.3
2018-Jun-08 01:30N 29°54' W 092°28'2 4.6
2018-Jun-08 01:00N 29°53' W 092°25'2 4.4
2018-Jun-08 00:28N 29°52' W 092°23'2 4.2
2018-Jun-08 00:00N 29°51' W 092°21'2 4.6
2018-Jun-07 23:30N 29°50' W 092°19'2 4.1
2018-Jun-07 23:00N 29°49' W 092°17'2 3.3
2018-Jun-07 22:30N 29°48' W 092°15'2 4.8
2018-Jun-07 22:00N 29°47' W 092°13'1 1.0
2018-Jun-07 21:30N 29°47' W 092°12'1 1.8
2018-Jun-07 21:00N 29°47' W 092°11'0 0.1
2018-Jun-07 20:29N 29°47' W 092°11'0 0.1
2018-Jun-07 20:00N 29°47' W 092°11'1 1.9
2018-Jun-07 19:30N 29°47' W 092°10'3 5.2
2018-Jun-07 19:00N 29°47' W 092°07'2 5.0
2018-Jun-07 18:30N 29°48' W 092°04'2 4.8
2018-Jun-07 18:00N 29°49' W 092°02'3 5.3
2018-Jun-07 17:30N 29°50' W 091°59'3 5.1
2018-Jun-07 16:57N 29°51' W 091°56'5 5.5
2018-Jun-07 15:59N 29°50' W 091°50'47 3.5
2018-Jun-07 02:41N 29°36' W 090°58'2 4.8
2018-Jun-07 02:17N 29°34' W 090°57'2 5.2
2018-Jun-07 01:56N 29°33' W 090°55'3 4.6
2018-Jun-07 01:12N 29°32' W 090°51'1 5.2
2018-Jun-07 01:00N 29°32' W 090°50'3 5.0
2018-Jun-07 00:30N 29°32' W 090°47'2 4.1
2018-Jun-07 00:00N 29°33' W 090°45'2 4.0
2018-Jun-06 23:30N 29°34' W 090°43'2 3.5
2018-Jun-06 23:00N 29°36' W 090°43'1 2.4
2018-Jun-06 22:30N 29°37' W 090°41'0 0.2
2018-Jun-06 22:00N 29°37' W 090°41'1 1.7
2018-Jun-06 21:30N 29°36' W 090°41'2 3.1
2018-Jun-06 21:00N 29°36' W 090°39'2 3.7
2018-Jun-06 20:30N 29°35' W 090°37'2 3.4
2018-Jun-06 19:56N 29°34' W 090°35'2 3.9
2018-Jun-06 19:30N 29°34' W 090°33'3 4.4
2018-Jun-06 18:48N 29°34' W 090°30'5 4.4
2018-Jun-06 17:42N 29°33' W 090°24'  

Dump ship's entire track history